METAR AND TAF INFORMATION
METAR FOR FALA
ADDS - METARS form results

(0705 UTC 27 May 2019)
Data provider http://aviationweather.gov/metar/data/
 
Forecast for: FALA (LANSERIA (CIV/MI, ZA)
Text: TAF FALA 270400Z 2706/2806 VRB03KT CAVOK TX22/2712Z TN07/2805Z
Forecast period: 0600 UTC 27 May 2019 to 0600 UTC 28 May 2019
Forecast type: FROM: standard forecast or significant change
Winds: variable direction winds at 3 MPH (3 knots; 1.5 m/s)
Visibility: 6 or more miles 10+ km)
Ceiling: unknown
Clouds: missing
Weather: no significant weather forecast for this period

 AIRPORT MAP

 RUNWAY INFORMATION
Runway 06L Runway length 10000 ft Runway width 75 ft
Runway elevation 4517 ft Runway displaced threshold 453 ft Runway heading 47
Runway 24R Runway length 10000 ft Runway width 75 ft
Runway elevation 4397 ft Runway displaced threshold 0 ft Runway heading 227
Runway 06R Runway length 5775 ft Runway width 49 ft
Runway elevation 4504 ft Runway displaced threshold 500 ft Runway heading 47
Runway 24L Runway length 5775 ft Runway width 49 ft
Runway elevation 4410 ft Runway displaced threshold 0 ft Runway heading 227

 AIRPORT FREQUENCIES
Type APP Name JOHANNESBU Frequency 123.7 MHZ
Type GND Name GND Frequency 121.65 MHZ
Type GTE Name APRON Frequency 122.85 MHZ
Type TWR Name TWR Frequency 124 MHZ

 AIRPORT NEAR NAVIGATION AIDS
Type NDB Name Lanseria Frequency 270 KHZ
Type VOR-DME Name Lanseria Frequency 117400 KHZ



The South Africal Virtual Air Force